createdAt,value
2023-05-10T00:00:25.292Z,40.39
2023-05-10T00:01:25.302Z,40.40
2023-05-10T00:02:25.368Z,40.38
2023-05-10T00:03:25.483Z,40.37
2023-05-10T00:04:25.385Z,40.35
2023-05-10T00:05:25.401Z,40.38
2023-05-10T00:06:25.421Z,40.41
2023-05-10T00:07:25.442Z,40.39
2023-05-10T00:08:25.502Z,40.39
2023-05-10T00:09:25.480Z,40.39
2023-05-10T00:10:25.494Z,40.40
2023-05-10T00:11:25.539Z,40.37
2023-05-10T00:12:25.543Z,40.40
2023-05-10T00:13:25.614Z,40.41
2023-05-10T00:14:25.628Z,40.39
2023-05-10T00:15:25.625Z,40.39
2023-05-10T00:16:25.678Z,40.38
2023-05-10T00:17:25.698Z,40.39
2023-05-10T00:18:25.712Z,40.39
2023-05-10T00:19:25.758Z,40.39
2023-05-10T00:20:25.773Z,40.40
2023-05-10T00:21:25.792Z,40.40
2023-05-10T00:22:25.798Z,40.41
2023-05-10T00:23:25.851Z,40.41
2023-05-10T00:24:25.865Z,40.41
2023-05-10T00:25:25.900Z,40.42
2023-05-10T00:26:25.932Z,40.43
2023-05-10T00:27:25.945Z,40.40
2023-05-10T00:28:25.994Z,40.43
2023-05-10T00:29:26.003Z,40.42
2023-05-10T00:30:26.027Z,40.43
2023-05-10T00:31:26.086Z,40.42
2023-05-10T00:32:26.154Z,40.41
2023-05-10T00:33:26.142Z,40.41
2023-05-10T00:34:26.128Z,40.43
2023-05-10T00:35:26.157Z,40.44
2023-05-10T00:36:26.192Z,40.43
2023-05-10T00:37:26.193Z,40.43
2023-05-10T00:38:26.268Z,40.42
2023-05-10T00:39:26.233Z,40.42
2023-05-10T00:40:26.265Z,40.44
2023-05-10T00:41:26.285Z,40.42
2023-05-10T00:42:26.284Z,40.40
2023-05-10T00:43:26.310Z,40.40
2023-05-10T00:44:26.331Z,40.42
2023-05-10T00:45:26.381Z,40.42
2023-05-10T00:46:26.428Z,40.41
2023-05-10T00:47:26.456Z,40.41
2023-05-10T00:48:26.432Z,40.43
2023-05-10T00:49:26.437Z,40.43
2023-05-10T00:50:26.481Z,40.43
2023-05-10T00:51:26.440Z,40.43
2023-05-10T00:52:26.566Z,40.40
2023-05-10T00:53:26.491Z,40.42
2023-05-10T00:54:26.495Z,40.42
2023-05-10T00:55:26.512Z,40.45
2023-05-10T00:56:26.568Z,40.44
2023-05-10T00:57:26.554Z,40.42
2023-05-10T00:58:26.626Z,40.44
2023-05-10T00:59:26.607Z,40.44
2023-05-10T01:00:26.639Z,40.40
2023-05-10T01:01:26.695Z,40.46
2023-05-10T01:02:26.785Z,40.44
2023-05-10T01:03:26.824Z,40.45
2023-05-10T01:04:26.982Z,40.45
2023-05-10T01:05:26.843Z,40.44
2023-05-10T01:06:26.798Z,40.46
2023-05-10T01:07:26.820Z,40.45
2023-05-10T01:08:26.923Z,40.48
2023-05-10T01:09:26.908Z,40.45
2023-05-10T01:10:26.901Z,40.45
2023-05-10T01:11:26.934Z,40.47
2023-05-10T01:12:26.954Z,40.46
2023-05-10T01:13:27.037Z,40.48
2023-05-10T01:14:27.024Z,40.46
2023-05-10T01:15:27.068Z,40.45
2023-05-10T01:16:27.170Z,40.45
2023-05-10T01:17:27.087Z,40.45
2023-05-10T01:28:56.882Z,40.84
2023-05-10T01:30:09.511Z,40.71
2023-05-10T01:30:57.867Z,40.67
2023-05-10T01:31:56.856Z,40.61
2023-05-10T01:32:56.865Z,40.58
2023-05-10T01:33:56.854Z,40.57
2023-05-10T01:34:56.830Z,40.56
2023-05-10T01:35:56.824Z,40.54
2023-05-10T01:36:56.805Z,40.55
2023-05-10T01:37:56.854Z,40.52
2023-05-10T01:38:56.817Z,40.52
2023-05-10T01:39:56.813Z,40.52
2023-05-10T01:40:56.801Z,40.52
2023-05-10T01:41:56.774Z,40.52
2023-05-10T01:42:56.763Z,40.51
2023-05-10T01:43:56.808Z,40.52
2023-05-10T01:44:56.749Z,40.52
2023-05-10T01:45:56.779Z,40.51
2023-05-10T01:46:56.954Z,40.51
2023-05-10T01:47:56.904Z,40.50
2023-05-10T01:48:56.882Z,40.51
2023-05-10T01:49:56.923Z,40.53
2023-05-10T01:50:56.929Z,40.52
2023-05-10T01:51:56.959Z,40.52
2023-05-10T01:52:57.028Z,40.49
2023-05-10T01:53:57.044Z,40.50
2023-05-10T01:54:57.069Z,40.52
2023-05-10T01:55:57.082Z,40.53
2023-05-10T01:56:57.126Z,40.51
2023-05-10T01:57:57.137Z,40.52
2023-05-10T01:58:57.185Z,40.52
2023-05-10T01:59:57.230Z,40.52
2023-05-10T02:00:57.267Z,40.52
2023-05-10T02:01:57.250Z,40.52
2023-05-10T02:02:57.299Z,40.52
2023-05-10T02:03:57.352Z,40.51
2023-05-10T02:04:57.349Z,40.52
2023-05-10T02:05:57.388Z,40.52
2023-05-10T02:06:57.394Z,40.51
2023-05-10T02:07:57.429Z,40.53
2023-05-10T02:08:57.479Z,40.52
2023-05-10T02:09:57.508Z,40.50
2023-05-10T02:10:57.536Z,40.53
2023-05-10T02:11:57.559Z,40.54
2023-05-10T02:12:57.588Z,40.52
2023-05-10T02:13:57.637Z,40.54
2023-05-10T02:14:57.632Z,40.50
2023-05-10T02:15:57.673Z,40.52
2023-05-10T02:16:57.762Z,40.51
2023-05-10T02:17:57.734Z,40.53
2023-05-10T02:18:57.785Z,40.54
2023-05-10T02:19:57.784Z,40.53
2023-05-10T02:20:57.803Z,40.55
2023-05-10T02:21:57.833Z,40.54
2023-05-10T02:22:57.887Z,40.54
2023-05-10T02:23:57.898Z,40.53
2023-05-10T02:24:57.927Z,40.53
2023-05-10T02:25:57.975Z,40.56
2023-05-10T02:26:57.997Z,40.55
2023-05-10T02:27:58.050Z,40.55
2023-05-10T02:28:58.078Z,40.54
2023-05-10T02:29:58.076Z,40.53
2023-05-10T02:30:58.109Z,40.56
2023-05-10T02:31:58.224Z,40.55
2023-05-10T02:32:58.226Z,40.56
2023-05-10T02:33:58.275Z,40.56
2023-05-10T02:34:58.244Z,40.54
2023-05-10T02:35:58.282Z,40.55
2023-05-10T02:36:58.326Z,40.55
2023-05-10T02:37:58.350Z,40.56
2023-05-10T02:38:58.395Z,40.54
2023-05-10T02:39:58.424Z,40.56
2023-05-10T02:40:58.469Z,40.56
2023-05-10T02:41:58.526Z,40.56
2023-05-10T02:42:58.560Z,40.56
2023-05-10T02:43:58.595Z,40.59
2023-05-10T02:44:58.620Z,40.57
2023-05-10T02:45:58.679Z,40.56
2023-05-10T02:46:58.683Z,40.57
2023-05-10T02:47:58.747Z,40.56
2023-05-10T02:48:58.785Z,40.59
2023-05-10T02:49:58.794Z,40.58
2023-05-10T02:50:58.828Z,40.60
2023-05-10T02:51:58.867Z,40.58
2023-05-10T02:52:58.907Z,40.57
2023-05-10T02:53:58.971Z,40.57
2023-05-10T02:54:58.993Z,40.57
2023-05-10T02:55:59.051Z,40.58
2023-05-10T02:56:59.070Z,40.58
2023-05-10T02:57:59.101Z,40.58
2023-05-10T02:58:59.131Z,40.57
2023-05-10T02:59:59.154Z,40.60
2023-05-10T03:00:59.357Z,40.59
2023-05-10T03:01:59.247Z,40.58
2023-05-10T03:02:59.389Z,40.57
2023-05-10T03:03:59.310Z,40.60
2023-05-10T03:04:59.486Z,40.59
2023-05-10T03:05:59.366Z,40.60
2023-05-10T03:07:00.110Z,40.56
2023-05-10T03:07:59.468Z,40.59
2023-05-10T03:08:59.493Z,40.59
2023-05-10T03:09:59.536Z,40.60
2023-05-10T03:10:59.538Z,40.59
2023-05-10T03:11:59.568Z,40.58
2023-05-10T03:12:59.633Z,40.59
2023-05-10T03:13:59.642Z,40.59
2023-05-10T03:14:59.668Z,40.60
2023-05-10T03:15:59.712Z,40.62
2023-05-10T03:16:59.758Z,40.58
2023-05-10T03:17:59.822Z,40.61
2023-05-10T03:19:00.135Z,40.60
2023-05-10T03:19:59.849Z,40.60
2023-05-10T03:20:59.910Z,40.59
2023-05-10T03:21:59.918Z,40.61
2023-05-10T03:22:59.945Z,40.61
2023-05-10T03:24:00.003Z,40.62
2023-05-10T03:25:00.076Z,40.60
2023-05-10T03:26:00.065Z,40.61
2023-05-10T03:27:00.079Z,40.63
2023-05-10T03:28:00.140Z,40.63
2023-05-10T03:29:00.198Z,40.63
2023-05-10T03:30:00.249Z,40.63
2023-05-10T03:31:00.284Z,40.65
2023-05-10T03:32:00.240Z,40.65
2023-05-10T03:33:00.357Z,40.64
2023-05-10T03:34:00.351Z,40.62
2023-05-10T03:35:00.346Z,40.63
2023-05-10T03:36:00.379Z,40.66
2023-05-10T03:37:00.410Z,40.64
2023-05-10T03:38:00.440Z,40.64
2023-05-10T03:39:00.489Z,40.63
2023-05-10T03:40:00.515Z,40.64
2023-05-10T03:41:00.544Z,40.62
2023-05-10T03:42:00.597Z,40.63
2023-05-10T03:43:00.641Z,40.65
2023-05-10T03:44:00.704Z,40.65
2023-05-10T03:45:00.699Z,40.64
2023-05-10T03:46:00.727Z,40.63
2023-05-10T03:47:00.897Z,40.64
2023-05-10T03:48:00.914Z,40.65
2023-05-10T03:49:00.848Z,40.65
2023-05-10T03:50:00.882Z,40.64
2023-05-10T03:51:00.931Z,40.64
2023-05-10T03:52:00.958Z,40.65
2023-05-10T03:53:01.001Z,40.65
2023-05-10T03:54:01.025Z,40.64
2023-05-10T03:55:01.073Z,40.64
2023-05-10T03:56:01.116Z,40.65
2023-05-10T03:57:01.166Z,40.65
2023-05-10T03:58:01.221Z,40.66
2023-05-10T03:59:01.262Z,40.66
2023-05-10T04:00:01.294Z,40.66
2023-05-10T04:01:01.325Z,40.66
2023-05-10T04:02:01.397Z,40.66
2023-05-10T04:03:01.485Z,40.67
2023-05-10T04:04:01.465Z,40.67
2023-05-10T04:05:01.501Z,40.64
2023-05-10T04:06:01.579Z,40.65
2023-05-10T04:07:01.562Z,40.63
2023-05-10T04:08:01.612Z,40.66
2023-05-10T04:09:01.691Z,40.67
2023-05-10T04:10:01.687Z,40.65
2023-05-10T04:11:01.731Z,40.65
2023-05-10T04:12:01.784Z,40.67
2023-05-10T04:13:01.859Z,40.65
2023-05-10T04:14:01.854Z,40.64
2023-05-10T04:15:01.901Z,40.66
2023-05-10T04:16:01.920Z,40.67
2023-05-10T04:17:02.263Z,40.63
2023-05-10T04:18:02.102Z,40.65
2023-05-10T04:19:02.048Z,40.65
2023-05-10T04:20:02.111Z,40.65
2023-05-10T04:21:02.155Z,40.66
2023-05-10T04:22:02.183Z,40.63
2023-05-10T04:23:02.205Z,40.64
2023-05-10T04:24:02.268Z,40.65
2023-05-10T04:25:02.316Z,40.63
2023-05-10T04:26:02.367Z,40.63
2023-05-10T04:27:02.440Z,40.64
2023-05-10T04:28:02.444Z,40.65
2023-05-10T04:29:02.500Z,40.64
2023-05-10T04:30:02.534Z,40.64
2023-05-10T04:31:02.656Z,40.66
2023-05-10T04:32:02.627Z,40.65
2023-05-10T04:33:02.735Z,40.64
2023-05-10T04:34:02.737Z,40.62
2023-05-10T04:35:02.735Z,40.61
2023-05-10T04:36:02.782Z,40.65
2023-05-10T04:37:02.857Z,40.64
2023-05-10T04:38:02.864Z,40.65
2023-05-10T04:39:02.906Z,40.65
2023-05-10T04:40:02.944Z,40.67
2023-05-10T04:41:03.012Z,40.66
2023-05-10T04:42:03.059Z,40.64
2023-05-10T04:43:03.097Z,40.65
2023-05-10T04:44:03.120Z,40.62
2023-05-10T04:45:03.149Z,40.65
2023-05-10T04:46:03.366Z,40.62
2023-05-10T04:47:03.256Z,40.67
2023-05-10T04:48:03.331Z,40.65
2023-05-10T04:49:03.363Z,40.65
2023-05-10T04:50:03.407Z,40.69
2023-05-10T04:51:03.421Z,40.67
2023-05-10T04:52:03.460Z,40.65
2023-05-10T04:53:03.520Z,40.69
2023-05-10T04:54:06.580Z,40.68
2023-05-10T04:55:03.556Z,40.65
2023-05-10T04:56:03.550Z,40.68
2023-05-10T04:57:03.548Z,40.69
2023-05-10T04:58:03.511Z,40.70
2023-05-10T04:59:03.505Z,40.68
2023-05-10T05:00:03.550Z,40.70
2023-05-10T05:01:03.527Z,40.69
2023-05-10T05:02:03.607Z,40.68
2023-05-10T05:03:03.579Z,40.69
2023-05-10T05:04:03.490Z,40.68
2023-05-10T05:05:03.484Z,40.68
2023-05-10T05:06:03.471Z,40.66
2023-05-10T05:07:03.457Z,40.69
2023-05-10T05:08:03.464Z,40.69
2023-05-10T05:09:03.482Z,40.71
2023-05-10T05:10:03.463Z,40.71
2023-05-10T05:11:03.447Z,40.72
2023-05-10T05:12:03.419Z,40.71
2023-05-10T05:13:03.479Z,40.73
2023-05-10T05:14:03.432Z,40.70
2023-05-10T05:15:03.418Z,40.72
2023-05-10T05:16:03.427Z,40.70
2023-05-10T05:17:03.400Z,40.73
2023-05-10T05:18:03.503Z,40.73
2023-05-10T05:19:03.417Z,40.72
2023-05-10T05:20:03.365Z,40.74
2023-05-10T05:21:03.395Z,40.73
2023-05-10T05:22:03.364Z,40.73
2023-05-10T05:23:03.358Z,40.73
2023-05-10T05:24:03.473Z,40.73
2023-05-10T05:25:04.133Z,40.73
2023-05-10T05:26:03.332Z,40.73
2023-05-10T05:27:03.330Z,40.71
2023-05-10T05:28:03.338Z,40.72
2023-05-10T05:29:03.308Z,40.70
2023-05-10T05:30:03.300Z,40.70
2023-05-10T05:31:03.315Z,40.69
2023-05-10T05:32:03.417Z,40.70
2023-05-10T05:33:03.346Z,40.69
2023-05-10T05:34:03.288Z,42.00
2023-05-10T05:35:03.336Z,42.33
2023-05-10T05:36:03.385Z,41.90
2023-05-10T05:37:03.436Z,42.13
2023-05-10T05:38:03.461Z,43.74
2023-05-10T05:39:03.470Z,43.08
2023-05-10T05:40:03.489Z,43.21
2023-05-10T05:41:03.510Z,43.39
2023-05-10T05:42:03.505Z,43.70
2023-05-10T05:43:03.563Z,43.82
2023-05-10T05:44:03.641Z,44.17
2023-05-10T05:45:03.678Z,44.43
2023-05-10T05:46:03.800Z,44.36
2023-05-10T05:47:03.756Z,44.51
2023-05-10T05:48:03.815Z,44.71
2023-05-10T05:49:03.823Z,45.17
2023-05-10T05:50:03.898Z,45.00
2023-05-10T05:51:05.155Z,45.18
2023-05-10T05:52:03.881Z,45.19
2023-05-10T05:53:03.863Z,45.34
2023-05-10T05:54:03.908Z,45.38
2023-05-10T05:55:03.853Z,45.43
2023-05-10T05:56:03.860Z,45.40
2023-05-10T05:57:03.845Z,45.51
2023-05-10T05:58:03.869Z,45.56
2023-05-10T05:59:03.833Z,45.38
2023-05-10T06:00:03.879Z,45.24
2023-05-10T06:01:03.830Z,45.10
2023-05-10T06:02:03.879Z,45.02
2023-05-10T06:03:03.859Z,45.02
2023-05-10T06:04:03.937Z,44.85
2023-05-10T06:05:03.795Z,44.89
2023-05-10T06:06:03.774Z,44.90
2023-05-10T06:07:03.782Z,44.90
2023-05-10T06:08:03.790Z,44.87
2023-05-10T06:09:03.783Z,44.96
2023-05-10T06:10:03.755Z,44.96
2023-05-10T06:11:03.766Z,44.94
2023-05-10T06:12:03.803Z,45.06
2023-05-10T06:13:03.811Z,45.03
2023-05-10T06:14:03.766Z,45.13
2023-05-10T06:15:03.733Z,45.17
2023-05-10T06:16:03.709Z,45.23
2023-05-10T06:17:03.743Z,45.47
2023-05-10T06:18:03.822Z,45.61
2023-05-10T06:19:03.712Z,45.65
2023-05-10T06:20:03.730Z,45.76
2023-05-10T06:21:03.750Z,45.79
2023-05-10T06:22:03.729Z,45.64
2023-05-10T06:23:03.713Z,45.73
2023-05-10T06:24:04.651Z,45.85
2023-05-10T06:25:03.659Z,45.51
2023-05-10T06:26:03.667Z,45.44
2023-05-10T06:27:03.632Z,45.34
2023-05-10T06:28:03.634Z,45.55
2023-05-10T06:29:03.633Z,45.49
2023-05-10T06:30:12.267Z,45.38
2023-05-10T06:31:04.705Z,45.36
2023-05-10T06:32:03.608Z,45.34
2023-05-10T06:33:03.730Z,45.31
2023-05-10T06:34:03.623Z,45.27
2023-05-10T06:35:03.653Z,45.65
2023-05-10T06:36:03.571Z,45.60
2023-05-10T06:37:03.687Z,45.38
2023-05-10T06:38:03.622Z,46.35
2023-05-10T06:39:03.651Z,46.49
2023-05-10T06:40:04.194Z,45.73
2023-05-10T06:41:03.794Z,45.81
2023-05-10T06:42:03.800Z,45.39
2023-05-10T06:43:03.887Z,45.40
2023-05-10T06:44:03.918Z,45.53
2023-05-10T06:45:04.179Z,45.23
2023-05-10T06:46:04.067Z,45.33
2023-05-10T06:47:04.085Z,45.46
2023-05-10T06:48:04.157Z,45.18
2023-05-10T06:49:04.187Z,45.12
2023-05-10T06:50:04.269Z,45.17
2023-05-10T06:51:04.283Z,45.25
2023-05-10T06:52:04.352Z,45.47
2023-05-10T06:53:04.370Z,45.42
2023-05-10T06:54:04.505Z,45.25
2023-05-10T06:55:04.528Z,45.79
2023-05-10T06:56:04.676Z,45.30
2023-05-10T06:57:08.797Z,45.52
2023-05-10T06:58:05.600Z,45.73
2023-05-10T06:59:04.615Z,45.86
2023-05-10T07:00:04.606Z,45.67
2023-05-10T07:01:04.608Z,45.46
2023-05-10T07:02:05.226Z,46.25
2023-05-10T07:03:04.570Z,45.33
2023-05-10T07:04:04.539Z,45.76
2023-05-10T07:05:04.550Z,45.62
2023-05-10T07:06:04.574Z,45.18
2023-05-10T07:07:04.520Z,45.19
2023-05-10T07:08:04.564Z,45.20
2023-05-10T07:09:04.512Z,45.46
2023-05-10T07:10:04.541Z,45.48
2023-05-10T07:11:04.598Z,45.40
2023-05-10T07:12:04.584Z,45.81
2023-05-10T07:13:04.638Z,45.45
2023-05-10T07:14:04.677Z,45.66
2023-05-10T07:15:04.622Z,45.48
2023-05-10T07:16:04.678Z,45.83
2023-05-10T07:17:04.721Z,45.52
2023-05-10T07:18:04.814Z,46.10
2023-05-10T07:19:04.730Z,45.94
2023-05-10T07:20:05.182Z,45.79
2023-05-10T07:21:04.821Z,46.03
2023-05-10T07:22:04.787Z,45.91
2023-05-10T07:23:04.775Z,45.80
2023-05-10T07:24:04.784Z,45.73
2023-05-10T07:25:04.824Z,45.85
2023-05-10T07:26:04.799Z,46.20
2023-05-10T07:27:04.811Z,45.94
2023-05-10T07:28:04.820Z,46.36
2023-05-10T07:29:04.799Z,46.05
2023-05-10T07:30:04.809Z,45.97
2023-05-10T07:31:04.839Z,46.12
2023-05-10T07:32:05.210Z,46.11
2023-05-10T07:33:04.818Z,45.56
2023-05-10T07:34:04.845Z,45.51
2023-05-10T07:35:05.220Z,45.49
2023-05-10T07:36:04.832Z,45.80
2023-05-10T07:37:05.706Z,45.41
2023-05-10T07:38:04.826Z,45.20
2023-05-10T07:39:04.920Z,45.11
2023-05-10T07:40:04.842Z,45.11
2023-05-10T07:41:04.868Z,45.50
2023-05-10T07:42:04.828Z,45.33
2023-05-10T07:43:05.591Z,45.08
2023-05-10T07:44:04.832Z,45.12
2023-05-10T07:45:04.813Z,45.00
2023-05-10T07:46:04.944Z,45.06
2023-05-10T07:47:04.840Z,44.85
2023-05-10T07:48:04.909Z,45.01
2023-05-10T07:49:04.874Z,45.00
2023-05-10T07:50:05.209Z,45.13
2023-05-10T07:51:04.895Z,45.22
2023-05-10T07:52:04.923Z,45.19
2023-05-10T07:53:04.931Z,45.13
2023-05-10T07:54:04.966Z,45.08
2023-05-10T07:55:05.209Z,45.12
2023-05-10T07:56:05.014Z,45.20
2023-05-10T07:57:04.994Z,45.44
2023-05-10T07:58:05.024Z,45.44
2023-05-10T07:59:05.019Z,45.28
2023-05-10T08:00:05.077Z,45.05
2023-05-10T08:01:05.025Z,45.18
2023-05-10T08:02:05.041Z,45.21
2023-05-10T08:03:05.060Z,45.26
2023-05-10T08:04:05.107Z,45.32
2023-05-10T08:05:05.143Z,45.41
2023-05-10T08:06:05.027Z,45.43
2023-05-10T08:07:05.063Z,45.74
2023-05-10T08:08:05.010Z,45.87
2023-05-10T08:09:05.040Z,45.81
2023-05-10T08:10:05.073Z,45.44
2023-05-10T08:11:05.063Z,45.41
2023-05-10T08:12:05.058Z,45.28
2023-05-10T08:13:05.164Z,45.16
2023-05-10T08:14:05.110Z,45.03
2023-05-10T08:15:05.150Z,45.03
2023-05-10T08:16:05.214Z,45.04
2023-05-10T08:17:05.120Z,45.64
2023-05-10T08:18:05.194Z,45.25
2023-05-10T08:19:05.245Z,45.28
2023-05-10T08:20:05.181Z,45.25
2023-05-10T08:21:05.211Z,45.54
2023-05-10T08:22:05.159Z,45.49
2023-05-10T08:23:05.161Z,45.55
2023-05-10T08:24:05.181Z,45.71
2023-05-10T08:25:05.189Z,45.51
2023-05-10T08:26:05.260Z,45.81
2023-05-10T08:27:05.380Z,45.50
2023-05-10T08:28:05.472Z,45.45
2023-05-10T08:29:05.398Z,45.74
2023-05-10T08:30:05.432Z,45.71
2023-05-10T08:31:05.475Z,45.42
2023-05-10T08:32:05.492Z,45.65
2023-05-10T08:33:05.630Z,45.82
2023-05-10T08:34:05.545Z,45.82
2023-05-10T08:35:05.590Z,46.06
2023-05-10T08:36:05.605Z,45.78
2023-05-10T08:37:05.631Z,45.76
2023-05-10T08:38:05.593Z,45.56
2023-05-10T08:39:07.747Z,45.73
2023-05-10T08:40:06.608Z,45.83
2023-05-10T08:41:05.595Z,45.88
2023-05-10T08:42:05.592Z,45.95
2023-05-10T08:43:05.589Z,46.05
2023-05-10T08:44:05.571Z,45.67
2023-05-10T08:45:05.705Z,45.46
2023-05-10T08:46:05.598Z,45.95
2023-05-10T08:47:05.729Z,45.70
2023-05-10T08:48:05.568Z,46.13
2023-05-10T08:49:05.546Z,45.70
2023-05-10T08:50:06.207Z,45.52
2023-05-10T08:51:05.560Z,45.51
2023-05-10T08:52:05.554Z,45.31
2023-05-10T08:53:05.556Z,45.36
2023-05-10T08:54:05.618Z,45.31
2023-05-10T08:55:05.564Z,45.45
2023-05-10T08:56:05.539Z,45.42
2023-05-10T08:57:05.552Z,45.45
2023-05-10T08:58:05.557Z,45.37
2023-05-10T08:59:05.578Z,45.44
2023-05-10T09:00:05.726Z,45.39
2023-05-10T09:01:05.684Z,45.39
2023-05-10T09:02:05.654Z,45.35
2023-05-10T09:03:05.778Z,45.20
2023-05-10T09:04:05.778Z,45.17
2023-05-10T09:05:05.819Z,45.11
2023-05-10T09:06:05.776Z,45.07
2023-05-10T09:07:05.770Z,45.07
2023-05-10T09:08:05.812Z,45.12
2023-05-10T09:09:05.831Z,45.05
2023-05-10T09:10:05.956Z,44.99
2023-05-10T09:11:05.917Z,45.02
2023-05-10T09:12:05.932Z,45.11
2023-05-10T09:13:05.988Z,45.14
2023-05-10T09:14:06.060Z,45.09
2023-05-10T09:15:06.278Z,45.49
2023-05-10T09:16:19.936Z,45.67
2023-05-10T09:17:07.133Z,45.48
2023-05-10T09:18:06.173Z,45.44
2023-05-10T09:19:06.096Z,45.34
2023-05-10T09:20:06.101Z,45.32
2023-05-10T09:21:06.084Z,45.41
2023-05-10T09:22:06.071Z,45.80
2023-05-10T09:23:06.095Z,45.74
2023-05-10T09:24:06.056Z,45.49
2023-05-10T09:25:06.073Z,45.49
2023-05-10T09:26:06.037Z,45.53
2023-05-10T09:27:06.079Z,45.52
2023-05-10T09:28:06.040Z,45.54
2023-05-10T09:29:06.025Z,45.73
2023-05-10T09:30:06.156Z,45.41
2023-05-10T09:31:06.114Z,45.40
2023-05-10T09:32:06.023Z,45.77
2023-05-10T09:33:06.049Z,46.38
2023-05-10T09:34:06.049Z,46.04
2023-05-10T09:35:06.001Z,46.02
2023-05-10T09:36:06.046Z,46.69
2023-05-10T09:37:06.089Z,46.99
2023-05-10T09:38:06.006Z,46.84
2023-05-10T09:39:06.025Z,46.70
2023-05-10T09:40:06.031Z,46.76
2023-05-10T09:41:06.058Z,46.83
2023-05-10T09:42:06.065Z,46.49
2023-05-10T09:43:06.081Z,46.62
2023-05-10T09:44:06.101Z,46.51
2023-05-10T09:45:06.122Z,46.50
2023-05-10T09:46:06.138Z,46.87
2023-05-10T09:47:06.165Z,46.50
2023-05-10T09:48:06.259Z,46.21
2023-05-10T09:49:06.140Z,46.23
2023-05-10T09:50:06.179Z,45.83
2023-05-10T09:51:06.289Z,45.76
2023-05-10T09:52:06.217Z,45.78
2023-05-10T09:53:06.190Z,45.64
2023-05-10T09:54:06.220Z,45.70
2023-05-10T09:55:06.217Z,45.50
2023-05-10T09:56:06.229Z,45.62
2023-05-10T09:57:06.259Z,45.47
2023-05-10T09:58:06.219Z,45.47
2023-05-10T09:59:06.211Z,45.15
2023-05-10T10:00:06.216Z,45.35
2023-05-10T10:01:06.230Z,45.42
2023-05-10T10:02:06.302Z,45.34
2023-05-10T10:03:06.271Z,45.42
2023-05-10T10:04:06.235Z,45.23
2023-05-10T10:05:06.301Z,45.50
2023-05-10T10:06:09.436Z,45.53
2023-05-10T10:07:07.285Z,45.57
2023-05-10T10:08:06.222Z,45.32
2023-05-10T10:09:06.242Z,45.34
2023-05-10T10:10:06.201Z,45.34
2023-05-10T10:11:06.273Z,45.21
2023-05-10T10:12:06.184Z,44.56
2023-05-10T10:13:06.188Z,44.32
2023-05-10T10:14:06.249Z,44.36
2023-05-10T10:15:06.159Z,45.22
2023-05-10T10:16:06.193Z,45.46
2023-05-10T10:17:08.667Z,45.59
2023-05-10T10:18:06.157Z,45.44
2023-05-10T10:19:06.180Z,45.20
2023-05-10T10:20:06.200Z,45.10
2023-05-10T10:21:06.125Z,44.97
2023-05-10T10:22:06.136Z,44.60
2023-05-10T10:23:06.099Z,44.16
2023-05-10T10:24:06.120Z,44.01
2023-05-10T10:25:06.102Z,44.30
2023-05-10T10:26:06.106Z,44.27
2023-05-10T10:27:06.105Z,44.57
2023-05-10T10:28:06.146Z,45.39
2023-05-10T10:29:06.096Z,46.11
2023-05-10T10:30:06.061Z,45.85
2023-05-10T10:31:06.275Z,46.41
2023-05-10T10:32:06.055Z,46.03
2023-05-10T10:33:16.544Z,46.09
2023-05-10T10:34:07.075Z,46.25
2023-05-10T10:35:06.055Z,46.27
2023-05-10T10:36:06.022Z,46.35
2023-05-10T10:37:06.062Z,46.48
2023-05-10T10:38:06.013Z,46.59
2023-05-10T10:39:06.055Z,46.66
2023-05-10T10:40:06.026Z,46.63
2023-05-10T10:41:06.018Z,46.60
2023-05-10T10:42:06.029Z,46.53
2023-05-10T10:43:05.985Z,46.59
2023-05-10T10:44:05.994Z,46.50
2023-05-10T10:45:05.969Z,46.46
2023-05-10T10:46:05.964Z,46.41
2023-05-10T10:47:06.047Z,46.40
2023-05-10T10:48:05.949Z,46.36
2023-05-10T10:49:05.931Z,46.25
2023-05-10T10:50:05.937Z,46.25
2023-05-10T10:51:05.930Z,46.27
2023-05-10T10:52:05.901Z,46.24
2023-05-10T10:53:05.969Z,46.21
2023-05-10T10:54:05.908Z,46.21
2023-05-10T10:55:05.874Z,46.17
2023-05-10T10:56:05.877Z,46.09
2023-05-10T10:57:05.898Z,45.98
2023-05-10T10:58:05.885Z,45.87
2023-05-10T10:59:05.877Z,45.77
2023-05-10T11:00:05.841Z,45.84
2023-05-10T11:01:05.899Z,46.01
2023-05-10T11:02:05.857Z,46.03
2023-05-10T11:03:05.860Z,45.97
2023-05-10T11:04:05.884Z,45.99
2023-05-10T11:05:05.851Z,45.93
2023-05-10T11:06:05.849Z,45.94
2023-05-10T11:07:05.815Z,45.86
2023-05-10T11:08:05.827Z,45.85
2023-05-10T11:09:05.870Z,45.83
2023-05-10T11:10:05.787Z,45.90
2023-05-10T11:11:05.823Z,45.88
2023-05-10T11:12:05.812Z,45.81
2023-05-10T11:13:05.828Z,45.81
2023-05-10T11:14:05.842Z,45.78
2023-05-10T11:15:05.842Z,45.73
2023-05-10T11:16:05.886Z,45.66
2023-05-10T11:17:05.914Z,45.63
2023-05-10T11:18:05.998Z,45.68
2023-05-10T11:19:05.998Z,45.59
2023-05-10T11:20:05.935Z,45.69
2023-05-10T11:21:05.986Z,45.70
2023-05-10T11:22:05.960Z,45.88
2023-05-10T11:23:06.013Z,45.94
2023-05-10T11:24:05.989Z,45.94
2023-05-10T11:25:06.023Z,46.01
2023-05-10T11:26:06.065Z,45.93
2023-05-10T11:27:06.057Z,45.97
2023-05-10T11:28:06.081Z,45.91
2023-05-10T11:29:06.244Z,45.87
2023-05-10T11:30:06.124Z,45.90
2023-05-10T11:31:06.163Z,45.89
2023-05-10T11:32:06.145Z,45.86
2023-05-10T11:33:06.213Z,45.90
2023-05-10T11:34:06.176Z,45.87
2023-05-10T11:35:06.192Z,45.84
2023-05-10T11:36:06.302Z,45.78
2023-05-10T11:37:06.233Z,45.79
2023-05-10T11:38:06.249Z,45.74
2023-05-10T11:39:06.335Z,45.72
2023-05-10T11:40:06.329Z,45.72
2023-05-10T11:41:06.385Z,45.68
2023-05-10T11:42:06.395Z,45.64
2023-05-10T11:43:06.387Z,45.54
2023-05-10T11:44:06.439Z,45.61
2023-05-10T11:45:06.424Z,45.71
2023-05-10T11:46:06.812Z,45.90
2023-05-10T11:47:06.454Z,46.02
2023-05-10T11:48:06.512Z,46.11
2023-05-10T11:49:06.509Z,46.23
2023-05-10T11:50:06.515Z,46.26
2023-05-10T11:51:06.546Z,46.36
2023-05-10T11:52:06.577Z,46.46
2023-05-10T11:53:06.586Z,46.57
2023-05-10T11:54:06.629Z,46.62
2023-05-10T11:55:06.639Z,46.72
2023-05-10T11:56:06.793Z,46.96
2023-05-10T11:57:06.710Z,47.08
2023-05-10T11:58:06.727Z,47.09
2023-05-10T11:59:06.787Z,47.21
2023-05-10T12:00:06.766Z,47.38
2023-05-10T12:01:06.804Z,47.36
2023-05-10T12:02:06.862Z,47.38
2023-05-10T12:03:06.905Z,47.41
2023-05-10T12:04:07.189Z,47.33
2023-05-10T12:05:06.933Z,47.21
2023-05-10T12:06:06.927Z,47.05
2023-05-10T12:07:06.984Z,46.89
2023-05-10T12:08:06.979Z,46.81
2023-05-10T12:09:07.010Z,46.76
2023-05-10T12:10:07.044Z,46.55
2023-05-10T12:11:07.081Z,46.37
2023-05-10T12:12:07.096Z,46.17
2023-05-10T12:13:07.148Z,46.00
2023-05-10T12:14:07.200Z,45.92
2023-05-10T12:15:07.233Z,45.78
2023-05-10T12:16:07.301Z,45.68
2023-05-10T12:17:07.299Z,45.43
2023-05-10T12:18:07.425Z,45.31
2023-05-10T12:19:07.401Z,45.18
2023-05-10T12:20:07.401Z,45.15
2023-05-10T12:21:07.436Z,45.01
2023-05-10T12:22:07.505Z,44.94
2023-05-10T12:23:07.523Z,44.90
2023-05-10T12:24:07.550Z,44.87
2023-05-10T12:25:07.591Z,44.76
2023-05-10T12:26:07.644Z,44.68
2023-05-10T12:27:07.684Z,44.53
2023-05-10T12:28:07.727Z,44.46
2023-05-10T12:29:07.760Z,44.42
2023-05-10T12:30:07.794Z,44.24
2023-05-10T12:31:07.844Z,44.14
2023-05-10T12:32:07.922Z,44.04
2023-05-10T12:33:07.962Z,43.97
2023-05-10T12:34:07.964Z,43.91
2023-05-10T12:35:07.992Z,43.84
2023-05-10T12:36:08.052Z,43.83
2023-05-10T12:37:08.095Z,43.82
2023-05-10T12:38:08.157Z,43.82
2023-05-10T12:39:08.164Z,43.81
2023-05-10T12:40:08.198Z,43.76
2023-05-10T12:41:08.302Z,43.73
2023-05-10T12:42:08.304Z,43.73
2023-05-10T12:43:08.342Z,43.67
2023-05-10T12:44:08.429Z,43.67
2023-05-10T12:45:08.445Z,43.61
2023-05-10T12:46:08.637Z,43.61
2023-05-10T12:47:08.578Z,43.58
2023-05-10T12:48:08.614Z,43.63
2023-05-10T12:49:09.709Z,43.66
2023-05-10T12:50:08.690Z,43.64
2023-05-10T12:51:08.768Z,43.66
2023-05-10T12:52:08.771Z,43.67
2023-05-10T12:53:08.825Z,43.60
2023-05-10T12:54:08.927Z,43.58
2023-05-10T12:55:08.942Z,43.60
2023-05-10T12:56:08.994Z,43.55
2023-05-10T12:57:09.036Z,43.59
2023-05-10T12:58:09.097Z,43.64
2023-05-10T12:59:09.119Z,43.61
2023-05-10T13:00:09.217Z,43.68
2023-05-10T13:01:09.290Z,43.63
2023-05-10T13:02:09.329Z,43.60
2023-05-10T13:03:09.357Z,43.56